Terminal Aerodrome Forecast
Issued by NWS

Home | Current Version | Previous Version | Text Only | Print | Product List | Glossary On
Versions: 1 2 3 4 5 6 7 8 9 10 11 12 13 14 15 16 17 18
000
FTUS43 KDVN 200500
TAFBRL
TAF
KBRL 200520Z 2006/2106 18005KT P6SM OVC030
     FM200800 16004KT P6SM OVC025
     FM201200 17005KT 6SM BR OVC009
     FM201700 18005KT P6SM OVC016
     FM210100 18005KT 4SM BR OVC010=

USA.gov is the U.S. government's official web portal to all federal, state and local government web resources and services.